createdAt,value
2022-09-30T00:02:10.690Z,96580.59
2022-09-30T00:04:41.290Z,96593.44
2022-09-30T00:07:11.719Z,96597.63
2022-09-30T00:09:42.298Z,96587.31
2022-09-30T00:12:15.421Z,96590.47
2022-09-30T00:14:45.841Z,96586.97
2022-09-30T00:17:16.221Z,96579.59
2022-09-30T00:19:47.271Z,96582.50
2022-09-30T00:22:17.745Z,96591.22
2022-09-30T00:24:48.336Z,96583.03
2022-09-30T00:27:21.357Z,96582.00
2022-09-30T00:29:51.774Z,96578.13
2022-09-30T00:32:22.241Z,96584.34
2022-09-30T00:34:52.698Z,96589.34
2022-09-30T00:37:23.117Z,96590.63
2022-09-30T00:39:53.657Z,96594.78
2022-09-30T00:42:26.761Z,96593.59
2022-09-30T00:44:58.908Z,96585.97
2022-09-30T00:47:38.390Z,96594.47
2022-09-30T00:50:17.266Z,96599.25
2022-09-30T00:52:51.777Z,96602.81
2022-09-30T00:55:30.713Z,96596.84
2022-09-30T00:58:06.205Z,96601.63
2022-09-30T01:00:36.757Z,96603.53
2022-09-30T01:03:09.120Z,96608.31
2022-09-30T01:05:39.569Z,96605.88
2022-09-30T01:08:12.046Z,96603.81
2022-09-30T01:10:42.486Z,96618.28
2022-09-30T01:13:18.129Z,96594.84
2022-09-30T01:16:07.198Z,96616.25
2022-09-30T01:18:52.970Z,96614.25
2022-09-30T01:21:34.729Z,96611.56
2022-09-30T01:24:32.285Z,96610.94
2022-09-30T01:27:15.474Z,96609.31
2022-09-30T01:30:13.683Z,96607.69
2022-09-30T01:33:05.943Z,96620.03
2022-09-30T01:35:50.962Z,96619.22
2022-09-30T01:38:29.594Z,96615.50
2022-09-30T01:41:07.783Z,96620.03
2022-09-30T01:43:45.719Z,96616.78
2022-09-30T01:46:25.729Z,96620.47
2022-09-30T01:49:05.982Z,96614.31
2022-09-30T01:51:40.512Z,96625.25
2022-09-30T01:54:20.025Z,96625.25
2022-09-30T01:56:54.712Z,96606.75
2022-09-30T01:59:29.987Z,96620.53
2022-09-30T02:02:02.343Z,96617.25
2022-09-30T02:04:40.567Z,96618.50
2022-09-30T02:07:15.639Z,96625.94
2022-09-30T02:09:51.920Z,96614.63
2022-09-30T02:12:25.432Z,96617.09
2022-09-30T02:15:02.124Z,96622.25
2022-09-30T02:17:36.912Z,96617.69
2022-09-30T02:20:15.393Z,96615.00
2022-09-30T02:22:50.049Z,96619.31
2022-09-30T02:25:26.266Z,96613.16
2022-09-30T02:28:01.676Z,96609.63
2022-09-30T02:30:33.083Z,96612.53
2022-09-30T02:33:06.803Z,96608.22
2022-09-30T02:35:44.884Z,96609.84
2022-09-30T02:38:21.113Z,96611.94
2022-09-30T02:40:57.007Z,96616.47
2022-09-30T02:43:27.969Z,96618.34
2022-09-30T02:46:08.194Z,96611.31
2022-09-30T02:48:48.076Z,96617.16
2022-09-30T02:51:26.889Z,96620.25
2022-09-30T02:54:08.614Z,96624.41
2022-09-30T02:56:49.179Z,96617.03
2022-09-30T02:59:20.108Z,96623.66
2022-09-30T03:01:50.891Z,96631.06
2022-09-30T03:04:25.709Z,96624.50
2022-09-30T03:06:59.008Z,96633.38
2022-09-30T03:09:30.015Z,96637.09
2022-09-30T03:12:09.917Z,96640.19
2022-09-30T03:14:58.774Z,96635.88
2022-09-30T03:17:54.765Z,96630.56
2022-09-30T03:20:39.766Z,96620.66
2022-09-30T03:23:27.591Z,96635.31
2022-09-30T03:26:06.809Z,96639.41
2022-09-30T03:28:45.909Z,96635.31
2022-09-30T03:31:25.366Z,96629.16
2022-09-30T03:33:59.230Z,96633.88
2022-09-30T03:36:38.316Z,96635.78
2022-09-30T03:39:24.087Z,96628.38
2022-09-30T03:42:01.519Z,96626.13
2022-09-30T03:44:40.401Z,96616.66
2022-09-30T03:47:13.412Z,96616.88
2022-09-30T03:49:48.977Z,96622.22
2022-09-30T03:52:20.719Z,96619.78
2022-09-30T03:54:58.315Z,96623.25
2022-09-30T03:57:29.125Z,96625.13
2022-09-30T03:59:59.687Z,96610.06
2022-09-30T04:02:30.615Z,96604.94
2022-09-30T04:05:01.014Z,96603.09
2022-09-30T04:07:31.534Z,96612.16
2022-09-30T04:10:04.757Z,96611.53
2022-09-30T04:12:35.423Z,96609.91
2022-09-30T04:15:06.460Z,96618.97
2022-09-30T04:17:36.880Z,96619.81
2022-09-30T04:20:08.173Z,96620.22
2022-09-30T04:22:38.622Z,96615.69
2022-09-30T04:25:12.973Z,96627.63
2022-09-30T04:27:43.407Z,96624.56
2022-09-30T04:30:14.803Z,96623.97
2022-09-30T04:32:47.201Z,96624.78
2022-09-30T04:35:18.007Z,96620.88
2022-09-30T04:37:49.721Z,96627.50
2022-09-30T04:40:22.864Z,96628.31
2022-09-30T04:42:54.089Z,96639.25
2022-09-30T04:45:24.735Z,96640.28
2022-09-30T04:47:55.401Z,96650.13
2022-09-30T04:50:26.013Z,96650.97
2022-09-30T04:52:57.411Z,96661.03
2022-09-30T04:55:30.524Z,96678.31
2022-09-30T04:58:01.050Z,96675.84
2022-09-30T05:00:31.588Z,96678.72
2022-09-30T05:03:02.151Z,96678.06
2022-09-30T05:05:33.304Z,96679.09
2022-09-30T05:08:04.776Z,96683.38
2022-09-30T05:10:38.071Z,96690.97
2022-09-30T05:13:08.433Z,96681.44
2022-09-30T05:15:38.799Z,96682.38
2022-09-30T05:18:09.233Z,96680.84
2022-09-30T05:20:39.687Z,96674.13
2022-09-30T05:23:10.089Z,96671.06
2022-09-30T05:25:43.137Z,96675.00
2022-09-30T05:28:13.557Z,96687.59
2022-09-30T05:30:45.608Z,96690.91
2022-09-30T05:33:17.062Z,96703.38
2022-09-30T05:35:48.003Z,96698.25
2022-09-30T05:38:18.479Z,96699.31
2022-09-30T05:40:51.772Z,96693.31
2022-09-30T05:43:22.662Z,96709.88
2022-09-30T05:45:57.224Z,96708.97
2022-09-30T05:48:28.755Z,96704.00
2022-09-30T05:51:01.838Z,96700.97
2022-09-30T05:53:34.440Z,96696.72
2022-09-30T05:56:08.185Z,96711.22
2022-09-30T05:58:40.817Z,96716.19
2022-09-30T06:01:14.493Z,96718.44
2022-09-30T06:03:45.866Z,96736.38
2022-09-30T06:06:17.162Z,96732.59
2022-09-30T06:08:47.705Z,96725.75
2022-09-30T06:11:25.220Z,96729.16
2022-09-30T06:13:56.466Z,96726.75
2022-09-30T06:16:27.572Z,96730.72
2022-09-30T06:18:58.114Z,96708.59
2022-09-30T06:21:28.694Z,96709.44
2022-09-30T06:23:59.169Z,96722.19
2022-09-30T06:26:32.213Z,96719.38
2022-09-30T06:29:02.689Z,96717.59
2022-09-30T06:31:33.147Z,96731.03
2022-09-30T06:34:04.821Z,96733.59
2022-09-30T06:36:35.307Z,96723.56
2022-09-30T06:39:10.263Z,96725.53
2022-09-30T06:41:46.959Z,96718.16
2022-09-30T06:44:28.358Z,96736.75
2022-09-30T06:46:58.918Z,96733.59
2022-09-30T06:49:42.020Z,96749.72
2022-09-30T06:52:14.162Z,96746.63
2022-09-30T06:54:44.920Z,96742.50
2022-09-30T06:57:22.651Z,96742.72
2022-09-30T06:59:53.317Z,96755.56
2022-09-30T07:02:23.967Z,96768.91
2022-09-30T07:04:54.603Z,96768.06
2022-09-30T07:07:25.081Z,96766.16
2022-09-30T07:09:59.581Z,96767.41
2022-09-30T07:12:32.656Z,96773.31
2022-09-30T07:15:03.485Z,96768.25
2022-09-30T07:17:34.213Z,96761.28
2022-09-30T07:20:05.058Z,96771.31
2022-09-30T07:22:35.503Z,96770.16
2022-09-30T07:25:07.367Z,96769.50
2022-09-30T07:27:40.624Z,96771.63
2022-09-30T07:30:19.185Z,96777.75
2022-09-30T07:32:55.022Z,96776.44
2022-09-30T07:35:25.496Z,96778.91
2022-09-30T07:37:55.880Z,96785.13
2022-09-30T07:40:31.573Z,96782.28
2022-09-30T07:43:05.905Z,96777.09
2022-09-30T07:45:36.378Z,96785.06
2022-09-30T07:48:27.002Z,96774.50
2022-09-30T07:50:57.511Z,96785.50
2022-09-30T07:53:28.069Z,96782.06
2022-09-30T07:55:58.510Z,96785.91
2022-09-30T07:58:31.554Z,96790.13
2022-09-30T08:01:02.045Z,96788.63
2022-09-30T08:03:32.491Z,96791.81
2022-09-30T08:06:08.104Z,96788.19
2022-09-30T08:08:38.924Z,96798.56
2022-09-30T08:11:10.176Z,96800.56
2022-09-30T08:13:43.747Z,96799.78
2022-09-30T08:16:14.243Z,96799.66
2022-09-30T08:18:44.693Z,96801.19
2022-09-30T08:21:15.439Z,96803.84
2022-09-30T08:23:45.843Z,96808.50
2022-09-30T08:26:17.340Z,96811.34
2022-09-30T08:28:50.655Z,96799.81
2022-09-30T08:31:23.495Z,96803.59
2022-09-30T08:33:54.210Z,96802.34
2022-09-30T08:36:26.086Z,96818.44
2022-09-30T08:38:57.554Z,96816.28
2022-09-30T08:41:49.372Z,96811.72
2022-09-30T08:44:35.757Z,96817.81
2022-09-30T08:47:18.742Z,96818.97
2022-09-30T08:50:02.933Z,96825.72
2022-09-30T08:52:48.363Z,96825.72
2022-09-30T08:55:24.830Z,96809.72
2022-09-30T08:57:56.881Z,96825.09
2022-09-30T09:00:30.143Z,96821.31
2022-09-30T09:03:03.360Z,96823.38
2022-09-30T09:05:49.908Z,96828.53
2022-09-30T09:08:32.635Z,96839.56
2022-09-30T09:11:06.750Z,96838.66
2022-09-30T09:13:48.159Z,96843.50
2022-09-30T09:16:29.622Z,96857.78
2022-09-30T09:19:11.011Z,96849.25
2022-09-30T09:21:53.706Z,96834.28
2022-09-30T09:24:27.368Z,96857.59
2022-09-30T09:27:00.131Z,96844.94
2022-09-30T09:29:41.378Z,96843.19
2022-09-30T09:32:19.047Z,96844.84
2022-09-30T09:34:54.811Z,96830.34
2022-09-30T09:37:45.681Z,96836.53
2022-09-30T09:40:23.603Z,96848.72
2022-09-30T09:43:16.993Z,96835.84
2022-09-30T09:45:57.300Z,96835.44
2022-09-30T09:48:30.993Z,96842.44
2022-09-30T09:51:09.397Z,96831.41
2022-09-30T09:53:48.309Z,96836.88
2022-09-30T09:56:26.328Z,96842.13
2022-09-30T09:59:24.122Z,96838.69
2022-09-30T10:01:57.303Z,96844.25
2022-09-30T10:04:32.998Z,96831.75
2022-09-30T10:07:05.898Z,96834.59
2022-09-30T10:09:38.104Z,96837.44
2022-09-30T10:12:30.765Z,96841.38
2022-09-30T10:15:07.613Z,96835.16
2022-09-30T10:17:40.313Z,96831.72
2022-09-30T10:20:26.420Z,96835.56
2022-09-30T10:23:06.081Z,96837.69
2022-09-30T10:25:36.524Z,96842.00
2022-09-30T10:28:25.281Z,96846.75
2022-09-30T10:31:01.851Z,96843.53
2022-09-30T10:33:36.801Z,96833.44
2022-09-30T10:36:17.969Z,96835.84
2022-09-30T10:39:02.700Z,96827.31
2022-09-30T10:41:38.927Z,96833.47
2022-09-30T10:44:17.195Z,96821.56
2022-09-30T10:46:50.390Z,96831.25
2022-09-30T10:49:29.924Z,96830.78
2022-09-30T10:52:04.530Z,96829.31
2022-09-30T10:54:49.764Z,96832.06
2022-09-30T10:57:23.937Z,96836.22
2022-09-30T10:59:58.005Z,96841.06
2022-09-30T11:02:38.524Z,96840.66
2022-09-30T11:05:19.540Z,96834.75
2022-09-30T11:07:57.696Z,96830.22
2022-09-30T11:10:42.476Z,96843.25
2022-09-30T11:13:22.047Z,96837.81
2022-09-30T11:16:04.675Z,96852.16
2022-09-30T11:18:42.764Z,96849.31
2022-09-30T11:21:20.264Z,96842.13
2022-09-30T11:23:58.044Z,96839.88
2022-09-30T11:26:40.187Z,96837.44
2022-09-30T11:29:42.935Z,96827.38
2022-09-30T11:32:25.530Z,96827.53
2022-09-30T11:35:06.992Z,96832.25
2022-09-30T11:37:53.086Z,96830.41
2022-09-30T11:40:37.109Z,96832.94
2022-09-30T11:43:18.428Z,96833.88
2022-09-30T11:46:13.697Z,96828.09
2022-09-30T11:49:02.134Z,96835.56
2022-09-30T11:51:41.195Z,96829.59
2022-09-30T11:54:27.946Z,96836.41
2022-09-30T11:57:10.851Z,96843.50
2022-09-30T11:59:47.493Z,96844.28
2022-09-30T12:02:30.385Z,96847.03
2022-09-30T12:05:07.421Z,96842.25
2022-09-30T12:07:45.420Z,96839.25
2022-09-30T12:10:23.014Z,96834.16
2022-09-30T12:13:02.019Z,96836.16
2022-09-30T12:15:34.044Z,96828.94
2022-09-30T12:18:08.593Z,96837.41
2022-09-30T12:20:40.812Z,96833.09
2022-09-30T12:23:19.630Z,96834.75
2022-09-30T12:25:56.193Z,96841.28
2022-09-30T12:28:50.849Z,96835.22
2022-09-30T12:31:58.329Z,96842.00
2022-09-30T12:34:43.718Z,96838.28
2022-09-30T12:37:31.857Z,96853.72
2022-09-30T12:40:25.407Z,96848.44
2022-09-30T12:43:26.617Z,96854.13
2022-09-30T12:46:20.110Z,96847.72
2022-09-30T12:48:55.885Z,96851.41
2022-09-30T12:51:32.333Z,96856.41
2022-09-30T12:54:05.875Z,96857.84
2022-09-30T12:56:37.796Z,96853.06
2022-09-30T12:59:08.375Z,96856.69
2022-09-30T13:01:44.142Z,96855.47
2022-09-30T13:04:34.649Z,96860.22
2022-09-30T13:07:11.402Z,96865.78
2022-09-30T13:09:59.927Z,96861.06
2022-09-30T13:12:42.613Z,96876.09
2022-09-30T13:15:41.513Z,96877.50
2022-09-30T13:18:48.075Z,96889.38
2022-09-30T13:21:31.965Z,96882.56
2022-09-30T13:24:05.767Z,96884.28
2022-09-30T13:26:49.737Z,96882.13
2022-09-30T13:29:50.662Z,96886.13
2022-09-30T13:32:37.550Z,96890.19
2022-09-30T13:35:33.665Z,96894.38
2022-09-30T13:38:41.202Z,96892.84
2022-09-30T13:41:20.787Z,96893.72
2022-09-30T13:44:07.350Z,96906.69
2022-09-30T13:46:45.003Z,96902.38
2022-09-30T13:49:21.012Z,96906.78
2022-09-30T13:51:52.959Z,96902.50
2022-09-30T13:54:32.139Z,96911.28
2022-09-30T13:57:04.104Z,96908.91
2022-09-30T13:59:46.872Z,96908.19
2022-09-30T14:02:55.490Z,96912.06
2022-09-30T14:05:57.238Z,96914.84
2022-09-30T14:08:57.526Z,96917.72
2022-09-30T14:11:46.178Z,96909.03
2022-09-30T14:14:46.351Z,96920.88
2022-09-30T14:17:44.278Z,96923.69
2022-09-30T14:20:30.031Z,96927.88
2022-09-30T14:23:00.799Z,96932.56
2022-09-30T14:25:37.382Z,96944.66
2022-09-30T14:28:16.749Z,96928.59
2022-09-30T14:31:08.329Z,96934.88
2022-09-30T14:33:39.849Z,96930.84
2022-09-30T14:39:04.090Z,96951.69
2022-09-30T14:41:34.972Z,96952.84
2022-09-30T14:44:08.429Z,96947.44
2022-09-30T14:46:42.231Z,96946.38
2022-09-30T14:49:16.703Z,96948.56
2022-09-30T14:51:49.533Z,96953.41
2022-09-30T14:54:22.799Z,96951.13
2022-09-30T14:56:54.812Z,96949.44
2022-09-30T14:59:31.607Z,96963.59
2022-09-30T15:02:04.505Z,96972.91
2022-09-30T15:04:38.683Z,96973.28
2022-09-30T15:07:14.141Z,96975.22
2022-09-30T15:09:46.485Z,96977.53
2022-09-30T15:12:19.638Z,96976.22
2022-09-30T15:14:55.975Z,96980.09
2022-09-30T15:17:28.226Z,96982.25
2022-09-30T15:19:59.390Z,96982.16
2022-09-30T15:22:32.080Z,96988.03
2022-09-30T15:25:03.019Z,96989.53
2022-09-30T15:27:37.220Z,96995.34
2022-09-30T15:30:26.759Z,96999.22
2022-09-30T15:33:02.563Z,97004.16
2022-09-30T15:35:33.588Z,97008.06
2022-09-30T15:38:13.279Z,97002.75
2022-09-30T15:43:50.505Z,97003.66
2022-09-30T15:46:29.949Z,97024.13
2022-09-30T15:49:03.075Z,97019.94
2022-09-30T15:51:42.631Z,97017.38
2022-09-30T15:54:39.849Z,97020.19
2022-09-30T15:57:46.317Z,97024.66
2022-09-30T16:00:36.582Z,97030.22
2022-09-30T16:03:36.484Z,97036.00
2022-09-30T16:06:14.833Z,97035.75
2022-09-30T16:08:47.689Z,97051.03
2022-09-30T16:11:24.919Z,97044.75
2022-09-30T16:13:57.290Z,97052.66
2022-09-30T16:16:32.010Z,97049.13
2022-09-30T16:19:06.686Z,97055.38
2022-09-30T16:21:44.512Z,97054.81
2022-09-30T16:24:48.433Z,97052.28
2022-09-30T16:27:34.200Z,97061.53
2022-09-30T16:30:06.736Z,97067.47
2022-09-30T16:32:42.210Z,97063.34
2022-09-30T16:35:22.746Z,97076.59
2022-09-30T16:37:54.175Z,97072.44
2022-09-30T16:40:26.735Z,97077.22
2022-09-30T16:42:58.897Z,97087.50
2022-09-30T16:45:30.787Z,97092.03
2022-09-30T16:48:03.211Z,97094.38
2022-09-30T16:50:42.086Z,97098.09
2022-09-30T16:53:12.691Z,97093.34
2022-09-30T16:59:04.872Z,97103.75
2022-09-30T17:01:35.264Z,97108.78
2022-09-30T17:04:05.638Z,97117.41
2022-09-30T17:06:40.187Z,97116.75
2022-09-30T17:09:13.571Z,97112.06
2022-09-30T17:11:44.227Z,97119.00
2022-09-30T17:14:15.856Z,97120.88
2022-09-30T17:16:46.772Z,97115.63
2022-09-30T17:19:17.584Z,97117.44
2022-09-30T17:21:50.892Z,97125.78
2022-09-30T17:24:21.559Z,97133.81
2022-09-30T17:26:52.010Z,97131.53
2022-09-30T17:29:33.087Z,97151.00
2022-09-30T17:32:04.258Z,97151.69
2022-09-30T17:34:34.697Z,97160.09
2022-09-30T17:39:58.146Z,97161.22
2022-09-30T17:42:40.922Z,97164.34
2022-09-30T17:45:13.173Z,97169.63
2022-09-30T17:47:44.107Z,97165.84
2022-09-30T17:50:14.633Z,97175.84
2022-09-30T17:52:48.064Z,97173.91
2022-09-30T17:55:18.607Z,97174.84
2022-09-30T17:57:49.743Z,97176.28
2022-09-30T18:00:20.996Z,97182.69
2022-09-30T18:02:54.641Z,97173.66
2022-09-30T18:05:25.830Z,97180.84
2022-09-30T18:07:59.386Z,97189.13
2022-09-30T18:10:30.402Z,97196.81
2022-09-30T18:13:00.844Z,97200.22
2022-09-30T18:15:31.432Z,97199.81
2022-09-30T18:18:01.952Z,97210.75
2022-09-30T18:20:32.391Z,97209.84
2022-09-30T18:23:05.631Z,97211.88
2022-09-30T18:25:36.532Z,97209.03
2022-09-30T18:28:09.480Z,97213.78
2022-09-30T18:30:40.462Z,97208.25
2022-09-30T18:33:11.472Z,97212.50
2022-09-30T18:35:42.786Z,97211.28
2022-09-30T18:38:15.862Z,97216.81
2022-09-30T18:40:46.968Z,97213.41
2022-09-30T18:43:17.710Z,97220.56
2022-09-30T18:45:56.692Z,97214.94
2022-09-30T18:48:27.810Z,97220.00
2022-09-30T18:51:04.497Z,97231.72
2022-09-30T18:53:37.891Z,97232.69
2022-09-30T18:56:08.614Z,97227.38
2022-09-30T18:58:39.599Z,97238.91
2022-09-30T19:01:10.247Z,97238.34
2022-09-30T19:03:40.857Z,97240.50
2022-09-30T19:06:12.186Z,97231.28
2022-09-30T19:08:45.992Z,97236.81
2022-09-30T19:11:17.772Z,97247.28
2022-09-30T19:13:50.210Z,97251.66
2022-09-30T19:16:22.460Z,97249.47
2022-09-30T19:18:54.709Z,97249.97
2022-09-30T19:21:25.521Z,97257.97
2022-09-30T19:23:59.311Z,97249.38
2022-09-30T19:26:30.460Z,97270.75
2022-09-30T19:29:01.023Z,97270.41
2022-09-30T19:31:32.832Z,97270.38
2022-09-30T19:34:04.044Z,97267.06
2022-09-30T19:36:45.519Z,97266.81
2022-09-30T19:39:23.111Z,97258.31
2022-09-30T19:41:54.093Z,97268.44
2022-09-30T19:44:24.892Z,97272.72
2022-09-30T19:46:55.810Z,97275.97
2022-09-30T19:49:26.984Z,97268.88
2022-09-30T19:51:57.407Z,97276.00
2022-09-30T19:54:40.566Z,97275.00
2022-09-30T19:57:13.407Z,97271.19
2022-09-30T19:59:43.997Z,97272.31
2022-09-30T20:02:14.921Z,97257.25
2022-09-30T20:04:45.666Z,97247.38
2022-09-30T20:07:16.398Z,97254.72
2022-09-30T20:09:49.586Z,97254.56
2022-09-30T20:12:20.120Z,97260.56
2022-09-30T20:15:02.855Z,97262.53
2022-09-30T20:17:33.632Z,97262.97
2022-09-30T20:20:16.823Z,97269.84
2022-09-30T20:22:47.270Z,97264.31
2022-09-30T20:25:20.486Z,97265.78
2022-09-30T20:27:52.593Z,97274.28
2022-09-30T20:30:23.465Z,97259.03
2022-09-30T20:32:53.954Z,97272.34
2022-09-30T20:35:24.933Z,97283.97
2022-09-30T20:37:55.354Z,97289.41
2022-09-30T20:40:28.770Z,97281.63
2022-09-30T20:43:04.261Z,97289.06
2022-09-30T20:45:34.721Z,97298.41
2022-09-30T20:48:06.437Z,97301.53
2022-09-30T20:50:39.932Z,97298.69
2022-09-30T20:53:12.437Z,97304.06
2022-09-30T20:55:46.980Z,97300.16
2022-09-30T20:58:17.357Z,97295.44
2022-09-30T21:00:48.521Z,97304.53
2022-09-30T21:03:18.924Z,97298.34
2022-09-30T21:05:54.949Z,97299.81
2022-09-30T21:08:25.764Z,97301.28
2022-09-30T21:11:00.677Z,97298.00
2022-09-30T21:13:31.251Z,97301.69
2022-09-30T21:16:04.246Z,97306.47
2022-09-30T21:18:35.528Z,97306.31
2022-09-30T21:21:06.655Z,97295.97
2022-09-30T21:23:38.365Z,97306.53
2022-09-30T21:26:13.501Z,97292.91
2022-09-30T21:28:48.796Z,97306.75
2022-09-30T21:31:21.670Z,97300.16
2022-09-30T21:33:55.488Z,97302.66
2022-09-30T21:36:25.966Z,97316.94
2022-09-30T21:38:57.009Z,97320.06
2022-09-30T21:41:32.981Z,97315.94
2022-09-30T21:44:04.517Z,97328.75
2022-09-30T21:46:35.867Z,97317.38
2022-09-30T21:49:08.379Z,97321.34
2022-09-30T21:51:38.762Z,97313.69
2022-09-30T21:54:13.599Z,97313.88
2022-09-30T21:56:46.742Z,97314.75
2022-09-30T21:59:17.309Z,97313.91
2022-09-30T22:01:48.110Z,97316.81
2022-09-30T22:04:19.712Z,97323.44
2022-09-30T22:06:50.221Z,97320.34
2022-09-30T22:09:21.005Z,97325.13
2022-09-30T22:11:53.991Z,97331.31
2022-09-30T22:14:25.573Z,97334.44
2022-09-30T22:16:56.770Z,97329.28
2022-09-30T22:19:27.184Z,97332.97
2022-09-30T22:21:57.548Z,97330.72
2022-09-30T22:24:27.895Z,97331.75
2022-09-30T22:27:00.907Z,97326.81
2022-09-30T22:29:32.815Z,97327.22
2022-09-30T22:32:03.937Z,97328.47
2022-09-30T22:34:46.674Z,97325.38
2022-09-30T22:37:29.589Z,97336.31
2022-09-30T22:40:01.225Z,97341.91
2022-09-30T22:42:35.945Z,97344.00
2022-09-30T22:45:06.622Z,97343.34
2022-09-30T22:47:36.938Z,97347.09
2022-09-30T22:50:08.173Z,97342.13
2022-09-30T22:52:38.663Z,97342.56
2022-09-30T22:55:09.962Z,97334.91
2022-09-30T22:57:44.090Z,97331.81
2022-09-30T23:00:16.037Z,97343.75
2022-09-30T23:02:46.366Z,97346.25
2022-09-30T23:05:16.820Z,97351.03
2022-09-30T23:07:47.161Z,97360.53
2022-09-30T23:10:17.738Z,97351.81
2022-09-30T23:12:51.585Z,97352.44
2022-09-30T23:15:21.908Z,97354.94
2022-09-30T23:17:52.413Z,97362.34
2022-09-30T23:20:22.965Z,97363.56
2022-09-30T23:22:53.448Z,97364.81
2022-09-30T23:25:23.845Z,97369.59
2022-09-30T23:27:56.957Z,97373.06
2022-09-30T23:30:28.080Z,97369.78
2022-09-30T23:32:58.433Z,97370.59
2022-09-30T23:35:28.804Z,97368.13
2022-09-30T23:37:59.270Z,97376.38
2022-09-30T23:40:29.609Z,97371.22
2022-09-30T23:43:02.601Z,97376.78
2022-09-30T23:45:32.975Z,97377.00
2022-09-30T23:48:03.516Z,97371.22
2022-09-30T23:50:34.393Z,97357.13
2022-09-30T23:53:04.795Z,97361.06
2022-09-30T23:55:35.169Z,97356.31
2022-09-30T23:58:08.634Z,97355.06
